Time;durP1;ratioP1;P1;durP2;ratioP2;P2;SDS_P1;SDS_P2;PMS_P1;PMS_P2;Temp;Humidity;BMP_temperature;BMP_pressure;BME280_temperature;BME280_humidity;BME280_pressure;Samples;Min_cycle;Max_cycle;Signal;HPM_P1;HPM_P2
2023/08/24 00:00:06;;;;;;;10.13;5.25;;;;;;;25.16;57.52;99867.38;7763895;32;39705;-82
2023/08/24 00:04:22;;;;;;;13.73;6.20;;;;;;;24.95;58.09;99867.75;7765515;32;37873;-82
2023/08/24 00:08:39;;;;;;;9.82;5.62;;;;;;;24.94;58.17;99866.16;7766927;32;37690;-82
2023/08/24 00:12:55;;;;;;;10.05;6.20;;;;;;;24.85;58.43;99868.34;7766626;32;38940;-82
2023/08/24 00:17:11;;;;;;;9.98;5.72;;;;;;;24.95;57.96;99866.94;7766587;32;39667;-82
2023/08/24 00:21:28;;;;;;;10.75;5.62;;;;;;;24.82;58.57;99864.31;7766810;32;38111;-82
2023/08/24 00:25:45;;;;;;;10.75;5.78;;;;;;;24.80;58.41;99865.84;7766616;32;37672;-82
2023/08/24 00:30:06;;;;;;;11.57;6.07;;;;;;;24.71;58.71;99864.06;7766745;32;39223;-82
2023/08/24 00:34:22;;;;;;;10.77;6.30;;;;;;;24.78;58.63;99862.63;7766493;32;39937;-82
2023/08/24 00:38:38;;;;;;;10.75;5.57;;;;;;;24.72;58.77;99865.69;7762881;32;38657;-82
2023/08/24 00:42:55;;;;;;;14.80;5.93;;;;;;;24.61;58.85;99878.59;7766570;32;38000;-82
2023/08/24 00:47:12;;;;;;;11.05;5.93;;;;;;;24.63;58.71;99876.25;7766449;32;39823;-82
2023/08/24 00:51:28;;;;;;;12.65;6.68;;;;;;;24.61;58.80;99877.78;7765188;32;40189;-82
2023/08/24 00:55:44;;;;;;;9.13;5.85;;;;;;;24.55;58.78;99866.13;7766167;32;38678;-82
2023/08/24 01:00:05;;;;;;;11.07;6.43;;;;;;;24.43;59.17;99875.38;7766187;32;36926;-82
2023/08/24 01:04:22;;;;;;;9.52;5.87;;;;;;;24.49;58.85;99884.25;7764897;32;39231;-82
2023/08/24 01:08:39;;;;;;;11.65;6.40;;;;;;;24.43;59.16;99885.72;7766116;32;40850;-82
2023/08/24 01:13:06;;;;;;;10.57;6.50;;;;;;;24.55;59.05;99882.84;7765370;32;37533;-82
2023/08/24 01:17:30;;;;;;;10.77;5.93;;;;;;;24.35;59.72;99879.16;7765819;32;36907;-82
2023/08/24 01:21:46;;;;;;;10.00;6.25;;;;;;;24.22;60.02;99878.47;7765159;32;40047;-82
2023/08/24 01:26:17;;;;;;;9.85;5.97;;;;;;;24.28;60.11;99877.00;7764876;32;39898;-82
2023/08/24 01:30:37;;;;;;;10.32;6.10;;;;;;;24.32;59.99;99874.34;7765948;32;37995;-82
2023/08/24 01:34:53;;;;;;;9.68;6.35;;;;;;;24.19;60.63;99877.22;7761741;32;36702;-82
2023/08/24 01:39:33;;;;;;;11.18;6.70;;;;;;;24.26;60.62;99876.56;7764376;32;39967;-81
2023/08/24 01:43:53;;;;;;;10.63;6.20;;;;;;;24.36;60.25;99873.22;7764803;32;39637;-82
2023/08/24 01:48:10;;;;;;;10.43;6.43;;;;;;;24.21;60.73;99873.28;7764567;32;39277;-82
2023/08/24 01:52:27;;;;;;;10.40;6.70;;;;;;;24.16;60.56;99866.00;7764406;32;37005;-82
2023/08/24 01:56:43;;;;;;;12.10;6.47;;;;;;;24.12;60.59;99865.91;7765639;32;39706;-81
2023/08/24 02:01:00;;;;;;;12.93;6.95;;;;;;;24.04;60.76;99863.31;7765513;32;40079;-82
2023/08/24 02:05:16;;;;;;;9.77;6.45;;;;;;;24.07;60.74;99865.38;7762798;32;38711;-82
2023/08/24 02:09:32;;;;;;;12.40;6.93;;;;;;;24.09;61.39;99863.84;7765451;32;37030;-81
2023/08/24 02:13:49;;;;;;;11.48;7.25;;;;;;;24.00;61.67;99869.59;7765425;32;39960;-81
2023/08/24 02:18:06;;;;;;;9.45;5.72;;;;;;;24.02;61.37;99865.66;7765150;32;39712;-81
2023/08/24 02:22:22;;;;;;;10.90;6.95;;;;;;;23.88;61.72;99855.00;7750024;32;37899;-82
2023/08/24 02:26:39;;;;;;;11.32;6.85;;;;;;;23.81;61.84;99850.06;7737303;32;37092;-81
2023/08/24 02:30:59;;;;;;;11.63;6.60;;;;;;;23.75;61.52;99857.00;7738287;32;39892;-81
2023/08/24 02:35:16;;;;;;;12.57;6.47;;;;;;;23.89;60.99;99848.25;7765162;32;40798;-82
2023/08/24 02:39:32;;;;;;;11.40;6.70;;;;;;;23.83;61.19;99850.50;7764856;32;38618;-81
2023/08/24 02:43:48;;;;;;;9.63;5.95;;;;;;;23.78;60.83;99846.00;7747242;32;37748;-82
2023/08/24 02:48:05;;;;;;;10.23;5.93;;;;;;;23.77;60.73;99849.13;7736858;32;40087;-82
2023/08/24 02:52:22;;;;;;;10.10;6.20;;;;;;;23.59;61.22;99843.94;7737856;32;40599;-82
2023/08/24 02:56:38;;;;;;;9.88;6.22;;;;;;;23.78;60.49;99839.59;7737938;32;37928;-82
2023/08/24 03:00:55;;;;;;;12.68;7.12;;;;;;;23.70;60.99;99844.19;7737741;32;36918;-81
2023/08/24 03:05:12;;;;;;;12.35;7.50;;;;;;;23.68;61.29;99852.09;7738583;32;39694;-83
2023/08/24 03:09:28;;;;;;;12.05;6.40;;;;;;;23.63;61.63;99860.72;7737587;32;40729;-84
2023/08/24 03:13:44;;;;;;;10.70;6.05;;;;;;;23.68;61.07;99849.31;7737493;32;37935;-83
2023/08/24 03:18:01;;;;;;;13.27;6.87;;;;;;;23.65;60.90;99852.81;7737188;32;37046;-84
2023/08/24 03:22:17;;;;;;;13.70;6.50;;;;;;;23.58;60.83;99858.19;7737443;32;38937;-83
2023/08/24 03:26:33;;;;;;;9.65;6.40;;;;;;;23.54;60.87;99858.09;7750142;32;40580;-84
2023/08/24 03:30:54;;;;;;;11.00;6.47;;;;;;;23.45;61.14;99868.56;7737073;32;38747;-84
2023/08/24 03:35:10;;;;;;;17.23;6.50;;;;;;;23.51;61.04;99866.34;7737963;32;36987;-84
2023/08/24 03:39:26;;;;;;;9.32;5.75;;;;;;;23.36;61.24;99863.19;7740191;32;40040;-84
2023/08/24 03:43:42;;;;;;;10.45;6.62;;;;;;;23.47;60.73;99868.22;7740146;32;41624;-84
2023/08/24 03:47:59;;;;;;;11.90;7.00;;;;;;;23.34;61.01;99870.28;7740117;32;37952;-84
2023/08/24 03:52:15;;;;;;;11.15;6.47;;;;;;;23.37;60.97;99875.09;7740428;32;37582;-84
2023/08/24 03:56:32;;;;;;;11.45;6.43;;;;;;;23.23;61.58;99881.91;7740111;32;39210;-83
2023/08/24 04:00:48;;;;;;;13.62;6.32;;;;;;;23.34;61.17;99876.66;7739920;32;39932;-83
2023/08/24 04:05:05;;;;;;;10.80;6.62;;;;;;;23.14;61.78;99877.66;7753075;32;37853;-83
2023/08/24 04:09:21;;;;;;;11.70;6.55;;;;;;;23.16;62.00;99876.16;7767005;32;36814;-83
2023/08/24 04:13:38;;;;;;;10.38;7.00;;;;;;;23.21;62.20;99875.09;7745443;32;40012;-83
2023/08/24 04:17:55;;;;;;;10.57;6.70;;;;;;;23.13;62.26;99884.38;7739560;32;39951;-83
2023/08/24 04:22:11;;;;;;;11.00;6.65;;;;;;;23.20;62.04;99881.81;7739762;32;37531;-83
2023/08/24 04:26:27;;;;;;;13.25;6.80;;;;;;;23.29;61.83;99887.22;7739775;32;37463;-83
2023/08/24 04:30:57;;;;;;;10.35;6.65;;;;;;;23.22;62.02;99891.41;7740125;32;39372;-83
2023/08/24 04:35:13;;;;;;;11.70;6.85;;;;;;;23.37;61.66;99887.06;7739629;32;39883;-83
2023/08/24 04:39:30;;;;;;;10.52;6.32;;;;;;;23.32;61.74;99897.62;7739467;32;37543;-83
2023/08/24 04:43:46;;;;;;;10.07;6.65;;;;;;;23.18;62.45;99893.31;7739536;32;37001;-83
2023/08/24 04:48:03;;;;;;;13.02;7.05;;;;;;;23.33;62.30;99894.47;7738683;32;40042;-83
2023/08/24 04:52:19;;;;;;;10.82;7.20;;;;;;;23.42;62.08;99895.16;7739392;32;39742;-83
2023/08/24 04:56:36;;;;;;;11.85;6.97;;;;;;;23.34;62.51;99892.53;7738066;32;38508;-84
2023/08/24 05:00:52;;;;;;;9.70;6.87;;;;;;;23.33;62.57;99893.69;7739260;32;37180;-83
2023/08/24 05:05:13;;;;;;;11.95;6.85;;;;;;;23.41;62.45;99890.75;7740031;32;39262;-83
2023/08/24 05:09:30;;;;;;;10.45;6.57;;;;;;;23.29;62.85;99895.56;7739164;32;39925;-83
2023/08/24 05:13:46;;;;;;;10.63;6.40;;;;;;;23.37;62.57;99889.03;7762439;32;37926;-83
2023/08/24 05:18:03;;;;;;;12.30;6.97;;;;;;;23.55;62.17;99890.31;7764624;32;37001;-75
2023/08/24 05:22:19;;;;;;;10.70;6.40;;;;;;;23.54;62.57;99893.44;7765921;32;39737;-76
2023/08/24 05:26:36;;;;;;;11.32;6.93;;;;;;;23.75;61.88;99890.41;7765844;32;40032;-74
2023/08/24 05:30:55;;;;;;;12.15;7.03;;;;;;;23.98;61.40;99902.56;7765801;32;38074;-73
2023/08/24 05:35:12;;;;;;;16.60;7.95;;;;;;;24.13;61.22;99891.81;7765825;32;37050;-73
2023/08/24 05:39:28;;;;;;;12.93;7.60;;;;;;;24.26;60.94;99898.84;7765681;32;39928;-72
2023/08/24 05:43:44;;;;;;;11.65;6.82;;;;;;;24.40;60.63;99897.59;7765637;32;39852;-76
2023/08/24 05:48:01;;;;;;;12.73;7.75;;;;;;;24.53;60.30;99885.16;7765516;32;38808;-75
2023/08/24 05:52:17;;;;;;;11.82;7.85;;;;;;;24.57;60.35;99891.63;7765651;32;37632;-76
2023/08/24 05:56:33;;;;;;;11.05;6.82;;;;;;;24.79;59.87;99886.53;7765565;32;38958;-75
2023/08/24 06:00:57;;;;;;;12.50;7.65;;;;;;;24.87;59.82;99893.87;7741532;32;39970;-75
2023/08/24 06:05:13;;;;;;;15.60;7.20;;;;;;;25.12;59.50;99900.75;7738526;32;39210;-78
2023/08/24 06:09:29;;;;;;;13.25;7.35;;;;;;;25.08;59.32;99897.09;7738203;32;36819;-78
2023/08/24 06:13:46;;;;;;;12.00;7.00;;;;;;;25.27;58.73;99896.31;7738301;32;39762;-77
2023/08/24 06:18:02;;;;;;;12.23;7.47;;;;;;;25.04;59.41;99901.81;7738067;32;40048;-78
2023/08/24 06:22:18;;;;;;;13.18;8.32;;;;;;;24.95;60.55;99898.41;7738102;32;37894;-78
2023/08/24 06:26:35;;;;;;;13.40;7.50;;;;;;;24.86;60.68;99897.84;7738228;32;37068;-79
2023/08/24 06:30:51;;;;;;;11.98;7.10;;;;;;;25.06;60.17;99896.69;7738231;32;39514;-79
2023/08/24 06:35:07;;;;;;;14.43;7.45;;;;;;;24.69;60.21;99899.88;7738273;32;40133;-80
2023/08/24 06:39:24;;;;;;;12.73;6.82;;;;;;;25.23;58.93;99895.41;7737876;32;38739;-75
2023/08/24 06:43:41;;;;;;;14.73;7.53;;;;;;;25.33;59.33;99896.81;7749744;32;37115;-76
2023/08/24 06:47:57;;;;;;;11.80;7.50;;;;;;;25.69;58.02;99897.47;7750723;32;39954;-76
2023/08/24 06:52:13;;;;;;;13.48;7.28;;;;;;;25.82;58.45;99896.13;7750305;32;39763;-76
2023/08/24 06:56:29;;;;;;;16.87;7.10;;;;;;;25.61;59.03;99892.94;7749775;32;38496;-76
2023/08/24 07:00:46;;;;;;;12.75;6.82;;;;;;;25.65;59.34;99894.63;7749229;32;37839;-76
2023/08/24 07:05:08;;;;;;;11.23;6.72;;;;;;;25.93;58.68;99896.28;7747985;32;39233;-75
2023/08/24 07:09:25;;;;;;;12.13;7.28;;;;;;;26.16;58.53;99889.91;7747870;32;40035;-76
2023/08/24 07:13:42;;;;;;;10.63;7.28;;;;;;;25.66;59.54;99898.22;7748850;32;36570;-76
2023/08/24 07:17:58;;;;;;;13.77;7.37;;;;;;;26.02;59.60;99899.66;7749278;32;36968;-77
2023/08/24 07:22:15;;;;;;;12.98;8.32;;;;;;;26.33;57.99;99908.13;7747771;32;39267;-75
2023/08/24 07:26:32;;;;;;;10.13;6.60;;;;;;;26.01;58.14;99911.22;7749094;32;40579;-72
2023/08/24 07:30:48;;;;;;;12.75;7.82;;;;;;;26.49;58.01;99905.16;7753175;32;38746;-73
2023/08/24 07:35:06;;;;;;;11.80;7.37;;;;;;;26.36;57.95;99912.97;7753634;32;36956;-73
2023/08/24 07:39:22;;;;;;;13.35;8.25;;;;;;;26.17;58.66;99903.50;7755439;32;39974;-76
2023/08/24 07:43:38;;;;;;;14.75;7.80;;;;;;;26.82;57.24;99906.44;7747312;32;40866;-77
2023/08/24 07:47:55;;;;;;;13.35;7.60;;;;;;;27.05;56.36;99900.75;7753553;32;38086;-76
2023/08/24 07:52:12;;;;;;;11.07;6.90;;;;;;;27.19;55.12;99906.50;7763553;32;37632;-76
2023/08/24 07:56:28;;;;;;;14.98;7.68;;;;;;;26.94;55.42;99900.59;7763370;32;39306;-74
2023/08/24 08:00:45;;;;;;;15.35;7.37;;;;;;;27.46;55.65;99898.06;7762109;32;40008;-76
2023/08/24 08:05:01;;;;;;;12.80;7.32;;;;;;;27.44;54.30;99906.84;7735457;32;37745;-84
2023/08/24 08:09:17;;;;;;;13.32;8.00;;;;;;;27.72;53.35;99906.31;7735911;32;37525;-85
2023/08/24 08:13:34;;;;;;;12.30;7.18;;;;;;;27.75;52.10;99909.53;7735619;32;39275;-82
2023/08/24 08:17:51;;;;;;;13.13;7.22;;;;;;;27.86;51.51;99910.44;7734840;32;39896;-85
2023/08/24 08:22:07;;;;;;;12.65;7.50;;;;;;;27.89;53.07;99906.88;7734306;32;38434;-86
2023/08/24 08:26:25;;;;;;;13.75;6.37;;;;;;;27.91;51.59;99907.28;7748861;32;36716;-86
2023/08/24 08:30:42;;;;;;;10.82;6.65;;;;;;;28.37;49.75;99906.88;7745588;32;39294;-86
2023/08/24 08:35:00;;;;;;;10.52;6.53;;;;;;;28.25;49.26;99901.56;7751705;32;40820;-86
2023/08/24 08:39:17;;;;;;;10.18;6.12;;;;;;;28.71;48.88;99901.06;7747533;32;37966;-86
2023/08/24 08:43:34;;;;;;;9.70;6.53;;;;;;;28.64;46.62;99893.41;7748988;32;37727;-86
2023/08/24 08:47:51;;;;;;;9.45;5.35;;;;;;;28.50;47.19;99892.53;7750791;32;38450;-85
2023/08/24 08:52:08;;;;;;;9.68;5.65;;;;;;;28.47;46.40;99896.91;7750694;32;40788;-85
2023/08/24 08:56:24;;;;;;;9.98;5.70;;;;;;;28.28;46.66;99898.78;7752008;32;37906;-85
2023/08/24 09:00:41;;;;;;;12.30;5.72;;;;;;;28.78;44.50;99894.69;7746029;32;36984;-87
2023/08/24 09:04:58;;;;;;;9.90;5.43;;;;;;;28.65;45.36;99894.25;7739930;32;39447;-86
2023/08/24 09:09:16;;;;;;;9.30;5.00;;;;;;;29.04;42.33;99888.00;7738604;32;38523;-86
2023/08/24 09:13:33;;;;;;;10.32;5.40;;;;;;;28.74;43.17;99879.87;7738737;32;37958;-86
2023/08/24 09:17:50;;;;;;;8.85;5.15;;;;;;;28.87;42.84;99880.31;7738377;32;37283;-87
2023/08/24 09:22:07;;;;;;;7.95;5.00;;;;;;;29.54;42.04;99882.53;7738667;32;39221;-86
2023/08/24 09:26:42;;;;;;;7.90;4.85;;;;;;;29.10;41.91;99882.81;7737013;32;39970;-85
2023/08/24 09:31:01;;;;;;;8.75;4.62;;;;;;;29.43;41.09;99887.34;7749485;32;38774;-86
2023/08/24 09:35:20;;;;;;;9.20;4.95;;;;;;;28.92;41.97;99877.91;7743186;32;37787;-86
2023/08/24 09:39:37;;;;;;;8.35;5.12;;;;;;;29.67;39.92;99870.94;7737256;32;39780;-86
2023/08/24 09:44:02;;;;;;;12.80;5.10;;;;;;;29.50;39.83;99870.50;7738190;32;40629;-86
2023/08/24 09:48:20;;;;;;;7.57;4.57;;;;;;;29.78;38.91;99863.31;7737086;32;37961;-85
2023/08/24 09:52:37;;;;;;;6.85;4.53;;;;;;;29.53;39.60;99861.28;7738160;32;37703;-87
2023/08/24 09:56:57;;;;;;;9.80;4.28;;;;;;;30.02;38.82;99860.91;7738099;32;37815;-86
2023/08/24 10:01:15;;;;;;;8.77;4.22;;;;;;;29.88;38.34;99856.91;7740767;32;39915;-88
2023/08/24 10:05:34;;;;;;;8.60;4.70;;;;;;;30.25;36.40;99861.28;7744326;32;36522;-86
2023/08/24 10:10:10;;;;;;;7.10;4.62;;;;;;;30.07;37.66;99857.69;7763210;32;37514;-89
2023/08/24 10:14:56;;;;;;;7.72;4.50;;;;;;;30.54;36.59;99858.44;7764933;32;39172;-88
2023/08/24 10:19:13;;;;;;;7.95;4.37;;;;;;;30.89;36.35;99851.06;7750939;32;40689;-85
2023/08/24 10:23:34;;;;;;;9.10;4.32;;;;;;;31.34;34.46;99845.62;7753806;32;37576;-84
2023/08/24 10:27:53;;;;;;;5.95;3.62;;;;;;;31.66;33.73;99841.78;7740994;32;37489;-84
2023/08/24 10:32:10;;;;;;;7.22;3.90;;;;;;;31.72;33.21;99848.59;7765254;32;38779;-85
2023/08/24 10:36:27;;;;;;;8.00;4.25;;;;;;;31.62;32.57;99841.81;7760825;32;39998;-85
2023/08/24 10:40:44;;;;;;;7.68;3.78;;;;;;;31.84;32.90;99833.19;7764052;32;38096;-86
2023/08/24 10:45:01;;;;;;;6.05;3.70;;;;;;;32.19;31.02;99834.88;7750750;32;36486;-85
2023/08/24 10:49:20;;;;;;;7.03;3.70;;;;;;;32.79;29.58;99820.53;7737145;32;39368;-82
2023/08/24 10:53:44;;;;;;;7.10;3.67;;;;;;;32.98;29.19;99810.59;7738338;32;39876;-83
2023/08/24 10:58:01;;;;;;;8.07;4.18;;;;;;;32.94;29.63;99812.66;7737711;32;37938;-79
2023/08/24 11:02:20;;;;;;;5.82;3.28;;;;;;;32.83;28.59;99821.28;7758142;32;37105;-85
2023/08/24 11:06:57;;;;;;;10.10;3.50;;;;;;;33.75;27.90;99808.22;7751053;32;38128;-85
2023/08/24 11:11:26;;;;;;;5.10;3.05;;;;;;;34.18;27.15;99811.06;7746901;32;39617;-83
2023/08/24 11:15:47;;;;;;;7.50;3.40;;;;;;;34.66;24.98;99800.44;7758279;32;37918;-83
2023/08/24 11:20:05;;;;;;;9.05;4.10;;;;;;;34.98;24.75;99793.31;7763187;32;35990;-83
2023/08/24 11:24:22;;;;;;;10.05;3.78;;;;;;;34.72;25.19;99804.41;7754923;32;39217;-84
2023/08/24 11:28:40;;;;;;;6.28;3.22;;;;;;;35.21;24.00;99792.41;7752524;32;39882;-83
2023/08/24 11:32:56;;;;;;;7.05;3.12;;;;;;;36.15;23.60;99784.34;7750291;32;36952;-89
2023/08/24 11:37:20;;;;;;;5.72;3.50;;;;;;;36.35;22.75;99784.22;7746581;32;37513;-84
2023/08/24 11:41:37;;;;;;;6.28;3.50;;;;;;;36.14;22.49;99775.03;7749512;32;37955;-86
2023/08/24 11:45:55;;;;;;;12.52;3.60;;;;;;;35.98;22.53;99775.06;7748458;32;40669;-87
2023/08/24 11:50:11;;;;;;;8.60;3.50;;;;;;;36.71;23.52;99772.63;7748961;32;37988;-86
2023/08/24 11:54:28;;;;;;;5.93;2.90;;;;;;;36.48;25.20;99779.37;7739328;32;36679;-73
2023/08/24 11:58:48;;;;;;;6.87;3.08;;;;;;;36.69;22.26;99775.13;7739462;32;39401;-80
2023/08/24 12:03:05;;;;;;;10.00;3.50;;;;;;;36.42;22.63;99775.50;7739802;32;40815;-80
2023/08/24 12:07:22;;;;;;;5.03;2.90;;;;;;;35.49;22.90;99771.03;7738514;32;38502;-80
2023/08/24 12:11:38;;;;;;;6.60;3.17;;;;;;;34.60;24.37;99763.38;7738598;32;36891;-80
2023/08/24 12:15:56;;;;;;;6.18;3.25;;;;;;;34.39;24.37;99753.31;7739569;32;39309;-80
2023/08/24 12:20:21;;;;;;;7.70;3.15;;;;;;;34.47;25.15;99755.97;7739455;32;40830;-81
2023/08/24 12:24:42;;;;;;;5.25;3.03;;;;;;;35.28;23.34;99751.75;7739542;32;37510;-80
2023/08/24 12:29:05;;;;;;;5.80;3.30;;;;;;;35.10;22.98;99749.31;7741383;32;37825;-80
2023/08/24 12:33:26;;;;;;;8.63;3.33;;;;;;;35.39;23.18;99746.59;7751596;32;39451;-79
2023/08/24 12:37:43;;;;;;;5.07;3.37;;;;;;;35.81;22.50;99729.75;7752236;32;39966;-79
2023/08/24 12:42:00;;;;;;;9.23;3.40;;;;;;;35.23;22.77;99724.75;7751256;32;37617;-78
2023/08/24 12:46:16;;;;;;;5.28;2.80;;;;;;;34.61;24.18;99725.31;7752593;32;37673;-80
2023/08/24 12:50:33;;;;;;;5.15;2.90;;;;;;;34.82;24.37;99716.81;7751213;32;39985;-80
2023/08/24 12:54:50;;;;;;;6.72;3.33;;;;;;;34.16;25.18;99725.06;7751035;32;40098;-80
2023/08/24 12:59:06;;;;;;;4.78;3.03;;;;;;;35.60;24.92;99713.28;7751763;32;37972;-79
2023/08/24 13:03:23;;;;;;;9.45;3.10;;;;;;;36.24;23.13;99711.56;7751225;32;36724;-79
2023/08/24 13:07:43;;;;;;;6.57;3.10;;;;;;;36.33;21.54;99707.25;7751388;32;40059;-80
2023/08/24 13:11:59;;;;;;;6.43;2.95;;;;;;;36.77;21.27;99693.34;7750678;32;40535;-81
2023/08/24 13:16:15;;;;;;;6.12;3.25;;;;;;;36.05;20.94;99699.09;7740678;32;38429;-81
2023/08/24 13:20:32;;;;;;;4.60;3.05;;;;;;;36.09;21.93;99681.97;7742722;32;37009;-81
2023/08/24 13:24:48;;;;;;;8.48;3.20;;;;;;;36.55;21.91;99676.97;7738846;32;39406;-81
2023/08/24 13:29:05;;;;;;;8.65;3.40;;;;;;;36.99;21.63;99673.56;7738768;32;40849;-81
2023/08/24 13:33:21;;;;;;;5.80;3.20;;;;;;;37.17;20.44;99679.47;7739210;32;37600;-80
2023/08/24 13:37:38;;;;;;;7.10;3.10;;;;;;;35.40;22.17;99677.38;7759676;32;36919;-80
2023/08/24 13:41:54;;;;;;;4.93;3.03;;;;;;;35.83;22.83;99679.06;7738355;32;39363;-80
2023/08/24 13:46:10;;;;;;;7.15;2.97;;;;;;;36.69;21.69;99672.91;7744490;32;40723;-79
2023/08/24 13:50:27;;;;;;;5.30;3.20;;;;;;;37.23;20.35;99664.69;7744407;32;37931;-81
2023/08/24 13:54:43;;;;;;;6.12;2.83;;;;;;;36.98;19.77;99672.78;7761653;32;36675;-80
2023/08/24 13:59:16;;;;;;;4.75;2.95;;;;;;;36.97;20.28;99670.41;7749275;32;39717;-81
2023/08/24 14:03:43;;;;;;;6.53;3.45;;;;;;;36.64;21.40;99660.03;7761933;32;40728;-81
2023/08/24 14:07:59;;;;;;;6.47;3.03;;;;;;;37.34;21.01;99660.22;7762741;32;38536;-81
2023/08/24 14:12:15;;;;;;;5.40;2.70;;;;;;;37.69;20.18;99663.06;7763333;32;37377;-81
2023/08/24 14:16:32;;;;;;;10.82;3.00;;;;;;;38.21;19.24;99654.28;7763685;32;39309;-81
2023/08/24 14:20:49;;;;;;;7.68;3.22;;;;;;;38.00;18.67;99653.81;7764751;32;39501;-80
2023/08/24 14:25:05;;;;;;;8.00;3.30;;;;;;;38.25;17.77;99652.88;7764955;32;38561;-81
2023/08/24 14:29:22;;;;;;;5.20;3.05;;;;;;;38.10;19.20;99649.78;7765369;32;37311;-81
2023/08/24 14:33:38;;;;;;;10.23;3.28;;;;;;;38.57;17.88;99639.44;7765025;32;39592;-81
2023/08/24 14:37:55;;;;;;;7.53;3.00;;;;;;;38.08;19.12;99649.41;7764858;32;39930;-81
2023/08/24 14:42:12;;;;;;;6.65;2.97;;;;;;;38.66;18.58;99641.53;7764825;32;37890;-83
2023/08/24 14:46:28;;;;;;;5.62;2.83;;;;;;;37.78;19.83;99630.28;7764955;32;37630;-81
2023/08/24 14:50:45;;;;;;;6.10;2.72;;;;;;;37.25;18.00;99630.91;7764812;32;40115;-82
2023/08/24 14:55:01;;;;;;;6.80;2.70;;;;;;;36.77;20.06;99639.41;7764762;32;39680;-81
2023/08/24 14:59:22;;;;;;;6.43;2.90;;;;;;;36.33;21.22;99639.94;7764630;32;38412;-81
2023/08/24 15:03:39;;;;;;;5.32;3.03;;;;;;;36.35;20.55;99637.44;7764400;32;37714;-82
2023/08/24 15:07:56;;;;;;;7.57;2.95;;;;;;;35.38;23.10;99640.19;7764570;32;39296;-82
2023/08/24 15:12:12;;;;;;;6.00;3.00;;;;;;;35.82;22.22;99639.81;7764597;32;41566;-80
2023/08/24 15:16:28;;;;;;;8.18;2.97;;;;;;;35.81;22.21;99639.03;7764031;32;37954;-81
2023/08/24 15:20:45;;;;;;;6.07;3.03;;;;;;;35.70;22.83;99638.50;7764172;32;37735;-80
2023/08/24 15:25:01;;;;;;;7.75;2.75;;;;;;;35.79;22.31;99629.34;7764339;32;39045;-81
2023/08/24 15:29:17;;;;;;;9.00;3.10;;;;;;;35.69;22.57;99631.25;7763871;32;39563;-81
2023/08/24 15:33:34;;;;;;;5.75;2.83;;;;;;;35.81;22.10;99633.34;7763047;32;37857;-81
2023/08/24 15:37:50;;;;;;;6.70;2.78;;;;;;;36.01;21.58;99629.53;7763799;32;37738;-80
2023/08/24 15:42:08;;;;;;;4.55;2.70;;;;;;;36.09;21.36;99628.09;7763740;32;38964;-81
2023/08/24 15:46:24;;;;;;;8.57;2.62;;;;;;;35.83;21.58;99613.84;7763574;32;40022;-81
2023/08/24 15:50:40;;;;;;;7.72;2.92;;;;;;;34.90;22.78;99610.66;7763453;32;38812;-81
2023/08/24 15:54:56;;;;;;;5.40;3.08;;;;;;;34.89;22.72;99614.72;7763425;32;36969;-80
2023/08/24 15:59:13;;;;;;;9.40;2.55;;;;;;;34.76;24.06;99608.97;7758475;32;39304;-80
2023/08/24 16:03:30;;;;;;;10.00;3.22;;;;;;;34.70;24.34;99614.31;7761978;32;40087;-79
2023/08/24 16:07:46;;;;;;;10.40;3.00;;;;;;;34.83;23.83;99602.34;7762576;32;38721;-80
2023/08/24 16:12:03;;;;;;;4.65;2.83;;;;;;;34.85;23.81;99611.19;7762364;32;37058;-80
2023/08/24 16:16:19;;;;;;;5.50;2.30;;;;;;;34.79;23.04;99611.72;7762273;32;39300;-79
2023/08/24 16:20:36;;;;;;;7.43;2.75;;;;;;;34.85;22.43;99608.34;7761947;32;40479;-79
2023/08/24 16:24:52;;;;;;;13.18;3.28;;;;;;;35.12;23.32;99603.19;7762867;32;38027;-79
2023/08/24 16:29:09;;;;;;;6.18;2.83;;;;;;;35.15;23.22;99601.50;7762089;32;36919;-80
2023/08/24 16:33:25;;;;;;;5.97;3.05;;;;;;;35.12;23.26;99600.34;7761101;32;39060;-80
2023/08/24 16:37:42;;;;;;;9.77;3.03;;;;;;;35.18;23.16;99606.28;7762001;32;39940;-80
2023/08/24 16:41:58;;;;;;;7.00;2.72;;;;;;;35.12;23.93;99608.84;7761644;32;37940;-80
2023/08/24 16:46:16;;;;;;;8.52;3.00;;;;;;;35.23;24.54;99599.31;7765933;32;36878;-80
2023/08/24 16:50:32;;;;;;;7.20;2.83;;;;;;;35.24;24.92;99598.06;7765618;32;39121;-80
2023/08/24 16:54:50;;;;;;;10.02;3.10;;;;;;;35.14;25.96;99595.03;7766305;32;39692;-79
2023/08/24 16:59:06;;;;;;;15.88;3.53;;;;;;;35.13;25.37;99584.97;7765584;32;38208;-80
2023/08/24 17:03:23;;;;;;;5.20;3.08;;;;;;;34.95;25.13;99584.63;7765676;32;37007;-80
2023/08/24 17:07:40;;;;;;;6.43;3.40;;;;;;;34.92;25.71;99588.34;7765777;32;39246;-80
2023/08/24 17:11:57;;;;;;;9.23;3.60;;;;;;;35.07;25.50;99598.06;7765322;32;39975;-80
2023/08/24 17:16:13;;;;;;;6.00;3.20;;;;;;;34.93;26.50;99593.56;7765029;32;37560;-80
2023/08/24 17:20:34;;;;;;;7.82;3.45;;;;;;;35.33;26.40;99589.72;7765393;32;36994;-80
2023/08/24 17:24:50;;;;;;;8.57;3.33;;;;;;;35.16;25.66;99586.09;7765503;32;39399;-80
2023/08/24 17:29:08;;;;;;;10.10;3.42;;;;;;;34.86;26.76;99581.63;7765264;32;40743;-80
2023/08/24 17:33:24;;;;;;;11.40;3.30;;;;;;;34.07;28.45;99578.59;7765241;32;38669;-80
2023/08/24 17:37:41;;;;;;;6.20;3.10;;;;;;;33.51;29.85;99593.44;7765256;32;37926;-80
2023/08/24 17:41:58;;;;;;;7.78;3.00;;;;;;;33.00;31.07;99589.94;7764926;32;40046;-80
2023/08/24 17:46:15;;;;;;;5.30;3.40;;;;;;;32.53;32.76;99610.41;7765392;32;39918;-79
2023/08/24 17:50:32;;;;;;;10.00;3.75;;;;;;;32.09;34.28;99612.28;7765063;32;37622;-80
2023/08/24 17:54:49;;;;;;;8.18;3.50;;;;;;;31.54;35.20;99617.72;7752442;32;37046;-85
2023/08/24 17:59:06;;;;;;;21.20;3.75;;;;;;;31.18;36.31;99620.06;7750416;32;39753;-84
2023/08/24 18:03:22;;;;;;;8.45;3.70;;;;;;;31.05;36.45;99623.41;7743258;32;39972;-85
2023/08/24 18:07:39;;;;;;;10.88;3.83;;;;;;;30.82;35.71;99645.69;7743151;32;38042;-84
2023/08/24 18:11:55;;;;;;;22.45;4.53;;;;;;;30.77;34.71;99640.47;7746653;32;37627;-84
2023/08/24 18:16:12;;;;;;;13.60;4.18;;;;;;;30.44;36.17;99656.78;7763520;32;40162;-84
2023/08/24 18:20:29;;;;;;;7.37;3.12;;;;;;;30.28;36.37;99652.41;7744618;32;41037;-83
2023/08/24 18:24:45;;;;;;;5.82;3.62;;;;;;;30.18;35.67;99661.69;7765173;32;38779;-83
2023/08/24 18:29:03;;;;;;;6.25;3.60;;;;;;;29.94;35.41;99669.03;7753567;32;36616;-83
2023/08/24 18:33:20;;;;;;;8.23;3.83;;;;;;;29.68;36.60;99673.87;7742334;32;39754;-86
2023/08/24 18:37:36;;;;;;;9.88;3.70;;;;;;;29.68;36.54;99668.25;7765361;32;39892;-89
2023/08/24 18:41:53;;;;;;;6.22;3.55;;;;;;;29.54;37.20;99668.31;7745471;32;37861;-87
2023/08/24 18:46:09;;;;;;;8.90;3.92;;;;;;;29.41;37.62;99679.16;7760233;32;36966;-87
2023/08/24 18:50:25;;;;;;;13.95;4.15;;;;;;;29.24;38.33;99683.59;7742050;32;40061;-87
2023/08/24 18:54:42;;;;;;;11.93;3.55;;;;;;;28.89;39.29;99681.53;7743744;32;39682;-87
2023/08/24 18:58:58;;;;;;;6.60;3.53;;;;;;;28.82;38.69;99680.34;7750350;32;38637;-87
2023/08/24 19:03:19;;;;;;;7.95;3.90;;;;;;;28.55;38.10;99674.25;7736381;32;37393;-87
2023/08/24 19:07:38;;;;;;;7.72;3.97;;;;;;;28.37;39.02;99671.41;7748479;32;39804;-87
2023/08/24 19:11:54;;;;;;;6.40;3.87;;;;;;;28.24;39.78;99667.34;7748199;32;39904;-88
2023/08/24 19:16:11;;;;;;;11.60;4.03;;;;;;;28.08;39.04;99670.50;7746819;32;39404;-88
2023/08/24 19:20:29;;;;;;;11.63;5.07;;;;;;;28.08;39.46;99670.50;7751154;32;36342;-87
2023/08/24 19:24:47;;;;;;;7.95;3.90;;;;;;;27.88;40.44;99678.34;7754866;32;39218;-86
2023/08/24 19:29:06;;;;;;;8.55;4.22;;;;;;;27.68;41.31;99681.47;7755506;32;39610;-86
2023/08/24 19:33:24;;;;;;;8.30;3.80;;;;;;;27.59;41.56;99677.38;7749487;32;37871;-86
2023/08/24 19:37:44;;;;;;;7.10;3.50;;;;;;;27.64;41.09;99685.41;7748195;32;37697;-87
2023/08/24 19:42:14;;;;;;;6.18;3.28;;;;;;;27.45;41.52;99681.69;7734993;32;38824;-87
2023/08/24 19:46:33;;;;;;;9.13;4.03;;;;;;;27.14;42.53;99695.00;7734559;32;39905;-87
2023/08/24 19:50:50;;;;;;;8.57;3.92;;;;;;;27.02;42.91;99705.69;7734558;32;37586;-88
2023/08/24 19:55:07;;;;;;;10.10;4.10;;;;;;;26.89;43.24;99708.78;7734341;32;36982;-88
2023/08/24 19:59:24;;;;;;;4.87;3.67;;;;;;;26.83;43.28;99701.91;7734275;32;39877;-91
2023/08/24 20:03:41;;;;;;;7.80;3.67;;;;;;;26.86;43.33;99701.16;7733894;32;39811;-88